createdAt,value
2018-11-29T11:54:58.812Z,100824.00
2018-11-29T11:57:32.038Z,100821.81
2018-11-29T12:00:05.704Z,100830.62
2018-11-29T12:02:39.332Z,100829.20
2018-11-29T12:05:26.404Z,100829.20
2018-11-29T12:08:00.008Z,100844.66
2018-11-29T12:10:33.512Z,100850.95
2018-11-29T12:13:08.068Z,100854.56
2018-11-29T12:15:42.306Z,100851.64
2018-11-29T12:18:17.012Z,100839.09
2018-11-29T12:20:50.846Z,100841.01
2018-11-29T12:23:23.339Z,100831.56
2018-11-29T12:25:57.515Z,100832.70
2018-11-29T12:28:31.365Z,100830.83
2018-11-29T12:31:05.270Z,100833.31
2018-11-29T12:33:39.613Z,100824.91
2018-11-29T12:36:13.481Z,100828.81
2018-11-29T12:38:47.317Z,100831.27
2018-11-29T12:41:21.490Z,100841.52
2018-11-29T12:44:01.200Z,100829.59
2018-11-29T12:46:34.796Z,100832.38
2018-11-29T12:49:08.545Z,100821.63
2018-11-29T12:51:42.312Z,100821.63
2018-11-29T12:54:16.035Z,100833.87
2018-11-29T12:56:50.558Z,100830.30
2018-11-29T12:59:24.076Z,100821.81
2018-11-29T13:01:57.691Z,100804.27
2018-11-29T13:04:32.278Z,100806.06
2018-11-29T13:07:06.071Z,100795.47
2018-11-29T13:09:39.796Z,100790.11
2018-11-29T13:12:12.106Z,100769.42
2018-11-29T13:14:46.275Z,100769.42
2018-11-29T13:17:19.783Z,100773.14
2018-11-29T13:19:53.367Z,100761.90
2018-11-29T13:22:26.743Z,100761.90
2018-11-29T13:25:00.498Z,100759.27
2018-11-29T13:27:34.403Z,100759.27
2018-11-29T13:32:49.300Z,100741.33
2018-11-29T13:35:28.011Z,100738.77
2018-11-29T13:40:31.949Z,100734.22
2018-11-29T13:43:05.655Z,100724.73
2018-11-29T13:45:39.483Z,100728.14
2018-11-29T13:48:15.059Z,100724.19
2018-11-29T13:50:48.451Z,100715.30
2018-11-29T13:53:22.304Z,100716.25
2018-11-29T13:55:56.312Z,100719.66
2018-11-29T13:58:29.737Z,100724.66
2018-11-29T14:01:03.310Z,100724.53
2018-11-29T14:03:36.828Z,100724.53
2018-11-29T14:06:09.944Z,100722.95
2018-11-29T14:08:43.560Z,100727.30
2018-11-29T14:11:16.881Z,100729.20
2018-11-29T14:13:49.214Z,100732.30
2018-11-29T14:16:23.031Z,100721.63
2018-11-29T14:18:56.514Z,100730.38
2018-11-29T14:21:30.303Z,100729.56
2018-11-29T14:24:03.770Z,100729.68
2018-11-29T14:26:37.354Z,100735.56
2018-11-29T14:29:11.298Z,100735.56
2018-11-29T14:31:44.780Z,100736.57
2018-11-29T14:34:18.329Z,100746.33
2018-11-29T14:36:51.720Z,100746.33
2018-11-29T14:39:25.520Z,100741.67
2018-11-29T14:41:59.280Z,100741.67
2018-11-29T14:44:33.303Z,100742.80
2018-11-29T14:47:06.758Z,100739.48
2018-11-29T14:49:39.347Z,100729.22
2018-11-29T14:52:13.306Z,100729.22
2018-11-29T14:54:46.735Z,100731.92
2018-11-29T14:57:21.302Z,100730.11
2018-11-29T14:59:54.641Z,100730.11
2018-11-29T15:02:28.078Z,100732.73
2018-11-29T15:05:07.685Z,100732.09
2018-11-29T15:07:38.731Z,100734.33
2018-11-29T15:10:13.540Z,100718.96
2018-11-29T15:12:47.294Z,100718.96
2018-11-29T15:15:20.713Z,100731.63
2018-11-29T15:17:56.023Z,100732.44
2018-11-29T15:22:59.820Z,100729.05
2018-11-29T15:25:33.146Z,100720.38
2018-11-29T15:28:06.565Z,100705.84
2018-11-29T15:30:39.898Z,100707.89
2018-11-29T15:33:13.145Z,100713.82
2018-11-29T15:35:46.486Z,100716.36
2018-11-29T15:40:56.536Z,100700.73
2018-11-29T15:43:31.305Z,100698.05
2018-11-29T15:46:04.783Z,100700.59
2018-11-29T15:52:22.306Z,100703.88
2018-11-29T15:54:55.731Z,100696.69
2018-11-29T15:57:28.307Z,100692.54
2018-11-29T16:00:00.936Z,100689.03
2018-11-29T16:02:34.714Z,100689.03
2018-11-29T16:05:09.070Z,100686.05
2018-11-29T16:07:42.712Z,100686.05
2018-11-29T16:10:21.488Z,100666.29
2018-11-29T16:12:55.299Z,100666.29
2018-11-29T16:15:28.702Z,100681.11
2018-11-29T16:18:00.307Z,100673.88
2018-11-29T16:20:39.707Z,100671.06
2018-11-29T16:23:14.336Z,100673.63
2018-11-29T16:25:48.087Z,100673.48
2018-11-29T16:28:21.515Z,100675.41
2018-11-29T16:31:02.539Z,100667.32
2018-11-29T16:33:42.062Z,100675.08
2018-11-29T16:36:15.850Z,100665.59
2018-11-29T16:38:49.543Z,100674.05
2018-11-29T16:41:23.420Z,100668.31
2018-11-29T16:43:56.910Z,100667.70
2018-11-29T16:46:30.700Z,100660.27
2018-11-29T16:49:04.743Z,100665.12
2018-11-29T16:51:38.350Z,100662.30
2018-11-29T16:54:11.836Z,100662.30
2018-11-29T16:56:44.389Z,100660.37
2018-11-29T16:59:17.742Z,100660.48
2018-11-29T17:01:51.656Z,100655.08
2018-11-29T17:04:25.303Z,100655.08
2018-11-29T17:06:58.787Z,100655.86
2018-11-29T17:09:31.100Z,100642.89
2018-11-29T17:12:04.742Z,100642.89
2018-11-29T17:14:38.538Z,100648.11
2018-11-29T17:17:12.099Z,100648.11
2018-11-29T17:19:45.752Z,100650.59
2018-11-29T17:22:19.367Z,100637.26
2018-11-29T17:24:52.898Z,100637.26
2018-11-29T17:27:25.940Z,100644.02
2018-11-29T17:29:59.476Z,100648.65
2018-11-29T17:32:33.061Z,100649.70
2018-11-29T17:35:06.679Z,100638.91
2018-11-29T17:37:40.256Z,100627.48
2018-11-29T17:40:22.090Z,100629.62
2018-11-29T17:42:57.759Z,100621.22
2018-11-29T17:45:35.060Z,100602.23
2018-11-29T17:48:14.371Z,100602.23
2018-11-29T17:50:49.327Z,100615.58
2018-11-29T17:53:22.775Z,100613.40
2018-11-29T17:55:57.308Z,100615.92
2018-11-29T17:58:33.518Z,100615.92
2018-11-29T18:01:07.380Z,100618.30
2018-11-29T18:03:42.382Z,100617.64
2018-11-29T18:06:16.273Z,100616.40
2018-11-29T18:09:30.310Z,100619.48
2018-11-29T18:12:04.798Z,100617.91
2018-11-29T18:14:38.394Z,100613.78
2018-11-29T18:17:12.307Z,100613.78
2018-11-29T18:19:45.719Z,100612.47
2018-11-29T18:22:19.322Z,100598.94
2018-11-29T18:24:52.718Z,100598.94
2018-11-29T18:27:26.712Z,100599.14
2018-11-29T18:30:00.337Z,100592.72
2018-11-29T18:35:25.326Z,100608.99
2018-11-29T18:37:58.724Z,100616.00
2018-11-29T18:40:32.311Z,100609.20
2018-11-29T18:43:06.068Z,100609.20
2018-11-29T18:45:39.782Z,100611.47
2018-11-29T18:48:13.306Z,100615.33
2018-11-29T18:50:46.737Z,100622.03
2018-11-29T18:53:20.307Z,100612.56
2018-11-29T18:55:53.646Z,100612.56
2018-11-29T18:58:27.306Z,100615.95
2018-11-29T19:01:00.683Z,100614.65
2018-11-29T19:03:35.280Z,100616.13
2018-11-29T19:06:08.864Z,100610.27
2018-11-29T19:08:42.776Z,100609.53
2018-11-29T19:11:14.940Z,100593.22
2018-11-29T19:13:48.804Z,100593.22
2018-11-29T19:16:20.264Z,100580.94
2018-11-29T19:18:53.287Z,100564.36
2018-11-29T19:21:27.316Z,100564.36
2018-11-29T19:24:00.740Z,100562.50
2018-11-29T19:26:39.114Z,100552.64
2018-11-29T19:29:10.260Z,100536.07
2018-11-29T19:31:44.300Z,100536.07
2018-11-29T19:34:17.764Z,100550.43
2018-11-29T19:36:50.093Z,100542.32
2018-11-29T19:39:23.684Z,100542.32
2018-11-29T19:41:57.357Z,100544.32
2018-11-29T19:44:30.876Z,100546.34
2018-11-29T19:47:05.381Z,100526.59
2018-11-29T19:49:38.712Z,100529.93
2018-11-29T19:52:12.313Z,100514.70
2018-11-29T19:54:46.267Z,100514.70
2018-11-29T19:57:20.677Z,100529.63
2018-11-29T19:59:54.297Z,100531.80
2018-11-29T20:02:27.779Z,100539.65
2018-11-29T20:05:01.032Z,100527.52
2018-11-29T20:07:34.641Z,100530.62
2018-11-29T20:10:13.360Z,100526.84
2018-11-29T20:12:48.316Z,100515.75
2018-11-29T20:15:25.292Z,100516.72
2018-11-29T20:17:58.764Z,100510.78
2018-11-29T20:20:32.314Z,100483.80
2018-11-29T20:23:06.058Z,100483.80
2018-11-29T20:25:39.822Z,100494.03
2018-11-29T20:28:13.547Z,100491.64
2018-11-29T20:30:46.987Z,100491.64
2018-11-29T20:33:20.711Z,100492.45
2018-11-29T20:35:54.320Z,100484.23
2018-11-29T20:38:27.745Z,100484.23
2018-11-29T20:41:01.343Z,100463.44
2018-11-29T20:43:34.970Z,100463.44
2018-11-29T20:46:08.526Z,100463.86
2018-11-29T20:48:41.907Z,100459.19
2018-11-29T20:51:15.371Z,100451.58
2018-11-29T20:53:48.885Z,100447.18
2018-11-29T20:56:21.101Z,100443.95
2018-11-29T20:58:54.517Z,100451.82
2018-11-29T21:01:28.303Z,100445.88
2018-11-29T21:04:01.717Z,100454.05
2018-11-29T21:06:35.721Z,100430.95
2018-11-29T21:09:13.834Z,100430.95
2018-11-29T21:11:47.893Z,100424.24
2018-11-29T21:14:21.321Z,100423.97
2018-11-29T21:16:54.747Z,100424.92
2018-11-29T21:19:28.268Z,100418.17
2018-11-29T21:22:01.726Z,100418.17
2018-11-29T21:24:35.540Z,100428.34
2018-11-29T21:27:09.433Z,100428.34
2018-11-29T21:30:32.124Z,100460.07
2018-11-29T21:33:06.062Z,100466.16
2018-11-29T21:35:39.790Z,100456.66
2018-11-29T21:38:25.417Z,100476.66
2018-11-29T21:41:07.312Z,100476.66
2018-11-29T21:43:41.070Z,100475.00
2018-11-29T21:46:14.482Z,100483.02
2018-11-29T21:48:48.339Z,100500.42
2018-11-29T21:51:22.299Z,100476.06
2018-11-29T21:53:55.703Z,100490.91
2018-11-29T21:56:29.316Z,100437.63
2018-11-29T21:59:03.313Z,100468.14
2018-11-29T22:01:36.856Z,100476.66
2018-11-29T22:04:09.263Z,100486.76
2018-11-29T22:06:43.538Z,100492.90
2018-11-29T22:09:16.921Z,100495.16
2018-11-29T22:11:51.374Z,100514.91
2018-11-29T22:14:24.920Z,100517.12
2018-11-29T22:16:58.472Z,100508.48
2018-11-29T22:19:32.340Z,100508.33
2018-11-29T22:22:05.764Z,100483.34
2018-11-29T22:24:39.327Z,100439.49
2018-11-29T22:27:13.309Z,100439.49
2018-11-29T22:29:47.325Z,100472.00
2018-11-29T22:32:20.965Z,100455.16
2018-11-29T22:34:54.532Z,100447.19
2018-11-29T22:37:28.872Z,100426.10
2018-11-29T22:40:01.122Z,100434.95
2018-11-29T22:42:34.568Z,100457.42
2018-11-29T22:45:09.665Z,100460.34
2018-11-29T22:47:43.299Z,100448.47
2018-11-29T22:50:16.743Z,100442.66
2018-11-29T22:52:50.298Z,100437.91
2018-11-29T22:55:23.792Z,100437.91
2018-11-29T22:57:57.326Z,100437.80
2018-11-29T23:00:41.521Z,100437.80
2018-11-29T23:03:15.815Z,100455.28
2018-11-29T23:05:48.536Z,100474.50
2018-11-29T23:08:21.283Z,100464.13
2018-11-29T23:10:54.881Z,100464.98
2018-11-29T23:13:28.343Z,100459.21
2018-11-29T23:16:02.288Z,100447.48
2018-11-29T23:18:35.685Z,100446.13
2018-11-29T23:21:09.298Z,100455.65
2018-11-29T23:23:43.308Z,100457.33
2018-11-29T23:26:16.698Z,100474.85
2018-11-29T23:28:50.121Z,100466.86
2018-11-29T23:31:23.508Z,100461.61
2018-11-29T23:33:56.886Z,100455.30
2018-11-29T23:36:30.541Z,100444.61
2018-11-29T23:39:04.840Z,100435.60
2018-11-29T23:41:37.099Z,100443.41
2018-11-29T23:44:10.799Z,100451.26
2018-11-29T23:46:44.288Z,100440.42
2018-11-29T23:49:18.336Z,100440.42
2018-11-29T23:51:52.019Z,100457.06
2018-11-29T23:54:25.496Z,100438.70
2018-11-29T23:56:58.888Z,100442.11
2018-11-29T23:59:31.129Z,100442.31
